sensor_id;sensor_type;location;lat;lon;timestamp;pressure;altitude;pressure_sealevel;temperature;humidity
67987;BME280;54767;53.800;15.956;2022-09-13T00:01:48;100034.27;;;13.85;70.90
67987;BME280;54767;53.800;15.956;2022-09-13T00:04:16;100029.88;;;13.84;70.73
67987;BME280;54767;53.800;15.956;2022-09-13T00:06:45;100028.14;;;13.83;70.82
67987;BME280;54767;53.800;15.956;2022-09-13T00:09:13;100026.39;;;13.82;70.93
67987;BME280;54767;53.800;15.956;2022-09-13T00:11:41;100023.05;;;13.82;70.81
67987;BME280;54767;53.800;15.956;2022-09-13T00:14:09;100017.42;;;13.82;70.72
67987;BME280;54767;53.800;15.956;2022-09-13T00:16:38;100013.19;;;13.82;70.62
67987;BME280;54767;53.800;15.956;2022-09-13T00:19:06;100008.45;;;13.82;70.77
67987;BME280;54767;53.800;15.956;2022-09-13T00:21:34;100004.58;;;13.82;70.84
67987;BME280;54767;53.800;15.956;2022-09-13T00:24:03;100003.36;;;13.81;70.77
67987;BME280;54767;53.800;15.956;2022-09-13T00:26:31;100001.63;;;13.81;70.89
67987;BME280;54767;53.800;15.956;2022-09-13T00:28:59;99998.11;;;13.79;70.94
67987;BME280;54767;53.800;15.956;2022-09-13T00:31:27;99994.23;;;13.80;70.80
67987;BME280;54767;53.800;15.956;2022-09-13T00:33:57;99991.02;;;13.82;70.77
67987;BME280;54767;53.800;15.956;2022-09-13T00:36:26;99989.11;;;13.82;70.73
67987;BME280;54767;53.800;15.956;2022-09-13T00:38:54;99983.98;;;13.83;70.79
67987;BME280;54767;53.800;15.956;2022-09-13T00:41:23;99981.89;;;13.82;70.70
67987;BME280;54767;53.800;15.956;2022-09-13T00:43:52;99977.52;;;13.80;70.87
67987;BME280;54767;53.800;15.956;2022-09-13T00:46:31;99972.44;;;13.79;70.92
67987;BME280;54767;53.800;15.956;2022-09-13T00:49:23;99968.91;;;13.80;71.01
67987;BME280;54767;53.800;15.956;2022-09-13T00:51:57;99960.63;;;13.81;70.99
67987;BME280;54767;53.800;15.956;2022-09-13T00:54:33;99959.54;;;13.82;70.95
67987;BME280;54767;53.800;15.956;2022-09-13T00:57:04;99957.41;;;13.84;70.89
67987;BME280;54767;53.800;15.956;2022-09-13T00:59:39;99955.48;;;13.84;71.08
67987;BME280;54767;53.800;15.956;2022-09-13T01:02:10;99955.30;;;13.84;71.06
67987;BME280;54767;53.800;15.956;2022-09-13T01:04:39;99951.98;;;13.83;71.09
67987;BME280;54767;53.800;15.956;2022-09-13T01:07:10;99946.01;;;13.82;71.02
67987;BME280;54767;53.800;15.956;2022-09-13T01:09:43;99935.47;;;13.82;70.94
67987;BME280;54767;53.800;15.956;2022-09-13T01:14:54;99933.39;;;13.79;71.22
67987;BME280;54767;53.800;15.956;2022-09-13T01:17:26;99932.16;;;13.78;71.07
67987;BME280;54767;53.800;15.956;2022-09-13T01:19:55;99934.81;;;13.78;71.24
67987;BME280;54767;53.800;15.956;2022-09-13T01:35:03;99922.55;;;13.86;71.67
67987;BME280;54767;53.800;15.956;2022-09-13T01:45:36;99902.59;;;13.90;71.83
67987;BME280;54767;53.800;15.956;2022-09-13T01:48:20;99899.41;;;13.92;71.79
67987;BME280;54767;53.800;15.956;2022-09-13T01:56:43;99880.96;;;13.90;71.95
67987;BME280;54767;53.800;15.956;2022-09-13T01:59:23;99872.14;;;13.91;71.91
67987;BME280;54767;53.800;15.956;2022-09-13T02:02:04;99866.52;;;13.91;71.74
67987;BME280;54767;53.800;15.956;2022-09-13T02:04:39;99862.48;;;13.92;71.70
67987;BME280;54767;53.800;15.956;2022-09-13T02:07:16;99846.10;;;13.92;71.63
67987;BME280;54767;53.800;15.956;2022-09-13T02:09:57;99845.94;;;13.92;71.71
67987;BME280;54767;53.800;15.956;2022-09-13T02:12:29;99841.18;;;13.92;71.86
67987;BME280;54767;53.800;15.956;2022-09-13T02:15:13;99841.55;;;13.90;71.74
67987;BME280;54767;53.800;15.956;2022-09-13T02:17:49;99833.46;;;13.90;71.86
67987;BME280;54767;53.800;15.956;2022-09-13T02:20:23;99835.73;;;13.92;71.94
67987;BME280;54767;53.800;15.956;2022-09-13T02:22:57;99833.07;;;13.93;71.83
67987;BME280;54767;53.800;15.956;2022-09-13T02:25:30;99825.83;;;13.94;71.85
67987;BME280;54767;53.800;15.956;2022-09-13T02:28:03;99824.42;;;13.94;71.87
67987;BME280;54767;53.800;15.956;2022-09-13T02:30:37;99825.84;;;13.94;71.86
67987;BME280;54767;53.800;15.956;2022-09-13T02:33:13;99824.43;;;13.93;71.88
67987;BME280;54767;53.800;15.956;2022-09-13T02:41:22;99820.33;;;13.96;72.02
67987;BME280;54767;53.800;15.956;2022-09-13T02:46:57;99814.67;;;13.98;72.05
67987;BME280;54767;53.800;15.956;2022-09-13T02:49:28;99803.60;;;13.97;71.95
67987;BME280;54767;53.800;15.956;2022-09-13T02:55:20;99789.42;;;13.94;72.10
67987;BME280;54767;53.800;15.956;2022-09-13T03:00:32;99792.55;;;13.95;72.07
67987;BME280;54767;53.800;15.956;2022-09-13T03:03:03;99791.48;;;13.96;72.32
67987;BME280;54767;53.800;15.956;2022-09-13T03:05:32;99792.54;;;13.96;72.40
67987;BME280;54767;53.800;15.956;2022-09-13T03:08:01;99788.15;;;13.96;72.23
67987;BME280;54767;53.800;15.956;2022-09-13T03:27:11;99777.95;;;13.95;72.47
67987;BME280;54767;53.800;15.956;2022-09-13T03:30:04;99773.40;;;13.95;72.59
67987;BME280;54767;53.800;15.956;2022-09-13T03:32:45;99772.69;;;13.95;72.66
67987;BME280;54767;53.800;15.956;2022-09-13T03:35:17;99772.29;;;13.97;72.76
67987;BME280;54767;53.800;15.956;2022-09-13T03:38:15;99769.46;;;13.98;72.88
67987;BME280;54767;53.800;15.956;2022-09-13T03:43:29;99765.35;;;14.01;73.06
67987;BME280;54767;53.800;15.956;2022-09-13T03:46:08;99769.55;;;14.03;73.04
67987;BME280;54767;53.800;15.956;2022-09-13T03:48:40;99765.65;;;14.04;73.07
67987;BME280;54767;53.800;15.956;2022-09-13T03:51:10;99764.77;;;14.05;73.14
67987;BME280;54767;53.800;15.956;2022-09-13T03:53:42;99766.52;;;14.04;73.09
67987;BME280;54767;53.800;15.956;2022-09-13T03:56:15;99760.91;;;14.03;73.08
67987;BME280;54767;53.800;15.956;2022-09-13T03:58:44;99758.27;;;14.04;73.11
67987;BME280;54767;53.800;15.956;2022-09-13T04:01:13;99751.39;;;14.04;73.04
67987;BME280;54767;53.800;15.956;2022-09-13T04:03:43;99745.91;;;14.06;73.16
67987;BME280;54767;53.800;15.956;2022-09-13T04:06:11;99743.44;;;14.07;73.12
67987;BME280;54767;53.800;15.956;2022-09-13T04:08:39;99739.54;;;14.08;73.23
67987;BME280;54767;53.800;15.956;2022-09-13T04:11:07;99735.11;;;14.09;73.20
67987;BME280;54767;53.800;15.956;2022-09-13T04:13:36;99736.13;;;14.10;73.49
67987;BME280;54767;53.800;15.956;2022-09-13T04:16:05;99734.54;;;14.11;73.32
67987;BME280;54767;53.800;15.956;2022-09-13T04:18:34;99733.50;;;14.10;73.32
67987;BME280;54767;53.800;15.956;2022-09-13T04:21:02;99736.48;;;14.10;73.36
67987;BME280;54767;53.800;15.956;2022-09-13T04:23:31;99738.24;;;14.11;73.44
67987;BME280;54767;53.800;15.956;2022-09-13T04:26:01;99735.07;;;14.12;73.24
67987;BME280;54767;53.800;15.956;2022-09-13T04:28:30;99739.75;;;14.14;73.26
67987;BME280;54767;53.800;15.956;2022-09-13T04:30:58;99739.36;;;14.16;73.27
67987;BME280;54767;53.800;15.956;2022-09-13T04:33:26;99727.89;;;14.18;73.24
67987;BME280;54767;53.800;15.956;2022-09-13T04:35:58;99719.77;;;14.19;73.35
67987;BME280;54767;53.800;15.956;2022-09-13T04:38:26;99714.65;;;14.19;73.24
67987;BME280;54767;53.800;15.956;2022-09-13T04:40:57;99711.32;;;14.19;73.27
67987;BME280;54767;53.800;15.956;2022-09-13T04:43:25;99710.09;;;14.19;73.45
67987;BME280;54767;53.800;15.956;2022-09-13T04:45:53;99706.94;;;14.18;73.31
67987;BME280;54767;53.800;15.956;2022-09-13T04:48:22;99700.96;;;14.18;73.36
67987;BME280;54767;53.800;15.956;2022-09-13T04:50:50;99698.66;;;14.18;73.36
67987;BME280;54767;53.800;15.956;2022-09-13T04:53:18;99698.13;;;14.19;73.29
67987;BME280;54767;53.800;15.956;2022-09-13T04:55:46;99696.19;;;14.19;73.43
67987;BME280;54767;53.800;15.956;2022-09-13T04:58:14;99691.09;;;14.19;73.41
67987;BME280;54767;53.800;15.956;2022-09-13T05:00:42;99690.36;;;14.19;73.40
67987;BME280;54767;53.800;15.956;2022-09-13T05:03:10;99690.17;;;14.20;73.31
67987;BME280;54767;53.800;15.956;2022-09-13T05:05:38;99688.91;;;14.21;73.37
67987;BME280;54767;53.800;15.956;2022-09-13T05:08:07;99681.31;;;14.23;73.38
67987;BME280;54767;53.800;15.956;2022-09-13T05:10:35;99672.48;;;14.24;73.33
67987;BME280;54767;53.800;15.956;2022-09-13T05:13:03;99671.23;;;14.24;73.42
67987;BME280;54767;53.800;15.956;2022-09-13T05:15:31;99670.90;;;14.24;73.40
67987;BME280;54767;53.800;15.956;2022-09-13T05:17:59;99667.55;;;14.24;73.49
67987;BME280;54767;53.800;15.956;2022-09-13T05:20:27;99667.00;;;14.25;73.41
67987;BME280;54767;53.800;15.956;2022-09-13T05:22:55;99666.64;;;14.26;73.40
67987;BME280;54767;53.800;15.956;2022-09-13T05:25:23;99664.13;;;14.28;73.44
67987;BME280;54767;53.800;15.956;2022-09-13T05:27:52;99662.54;;;14.29;73.36
67987;BME280;54767;53.800;15.956;2022-09-13T05:30:21;99660.37;;;14.31;73.37
67987;BME280;54767;53.800;15.956;2022-09-13T05:32:49;99656.11;;;14.33;73.37
67987;BME280;54767;53.800;15.956;2022-09-13T05:35:17;99656.08;;;14.34;73.42
67987;BME280;54767;53.800;15.956;2022-09-13T05:37:48;99649.92;;;14.34;73.32
67987;BME280;54767;53.800;15.956;2022-09-13T05:40:16;99651.16;;;14.33;73.37
67987;BME280;54767;53.800;15.956;2022-09-13T05:42:44;99653.98;;;14.33;73.38
67987;BME280;54767;53.800;15.956;2022-09-13T05:45:13;99651.13;;;14.34;73.30
67987;BME280;54767;53.800;15.956;2022-09-13T05:47:41;99649.34;;;14.36;73.26
67987;BME280;54767;53.800;15.956;2022-09-13T05:50:09;99649.11;;;14.39;73.21
67987;BME280;54767;53.800;15.956;2022-09-13T05:52:54;99643.98;;;14.39;73.18
67987;BME280;54767;53.800;15.956;2022-09-13T05:55:22;99641.68;;;14.40;73.27
67987;BME280;54767;53.800;15.956;2022-09-13T05:57:51;99638.31;;;14.40;73.15
67987;BME280;54767;53.800;15.956;2022-09-13T06:00:19;99633.91;;;14.41;73.12
67987;BME280;54767;53.800;15.956;2022-09-13T06:02:47;99629.66;;;14.42;73.13
67987;BME280;54767;53.800;15.956;2022-09-13T06:05:16;99626.27;;;14.44;73.10
67987;BME280;54767;53.800;15.956;2022-09-13T06:07:44;99621.34;;;14.44;73.13
67987;BME280;54767;53.800;15.956;2022-09-13T06:10:12;99616.05;;;14.44;73.13
67987;BME280;54767;53.800;15.956;2022-09-13T06:12:40;99610.23;;;14.45;73.05
67987;BME280;54767;53.800;15.956;2022-09-13T06:15:08;99611.61;;;14.46;72.98
67987;BME280;54767;53.800;15.956;2022-09-13T06:17:38;99609.98;;;14.48;72.98
67987;BME280;54767;53.800;15.956;2022-09-13T06:20:07;99600.80;;;14.48;72.98
67987;BME280;54767;53.800;15.956;2022-09-13T06:22:36;99595.69;;;14.49;72.96
67987;BME280;54767;53.800;15.956;2022-09-13T06:25:04;99598.86;;;14.49;72.99
67987;BME280;54767;53.800;15.956;2022-09-13T06:27:33;99595.16;;;14.49;73.02
67987;BME280;54767;53.800;15.956;2022-09-13T06:30:01;99593.04;;;14.50;72.95
67987;BME280;54767;53.800;15.956;2022-09-13T06:32:30;99599.34;;;14.51;72.94
67987;BME280;54767;53.800;15.956;2022-09-13T06:34:58;99599.86;;;14.52;73.09
67987;BME280;54767;53.800;15.956;2022-09-13T06:37:27;99607.21;;;14.54;73.02
67987;BME280;54767;53.800;15.956;2022-09-13T06:39:55;99607.74;;;14.54;73.12
67987;BME280;54767;53.800;15.956;2022-09-13T06:42:23;99601.62;;;14.53;73.11
67987;BME280;54767;53.800;15.956;2022-09-13T06:44:52;99600.36;;;14.54;73.15
67987;BME280;54767;53.800;15.956;2022-09-13T06:47:20;99595.04;;;14.56;73.22
67987;BME280;54767;53.800;15.956;2022-09-13T06:49:48;99585.65;;;14.58;73.14
67987;BME280;54767;53.800;15.956;2022-09-13T06:52:16;99586.83;;;14.60;73.13
67987;BME280;54767;53.800;15.956;2022-09-13T06:54:44;99581.70;;;14.61;73.21
67987;BME280;54767;53.800;15.956;2022-09-13T06:57:12;99574.65;;;14.61;73.22
67987;BME280;54767;53.800;15.956;2022-09-13T06:59:41;99566.55;;;14.61;73.26
67987;BME280;54767;53.800;15.956;2022-09-13T07:02:09;99567.95;;;14.61;73.31
67987;BME280;54767;53.800;15.956;2022-09-13T07:04:38;99571.42;;;14.63;73.21
67987;BME280;54767;53.800;15.956;2022-09-13T07:07:06;99569.13;;;14.64;73.25
67987;BME280;54767;53.800;15.956;2022-09-13T07:09:34;99563.61;;;14.66;73.28
67987;BME280;54767;53.800;15.956;2022-09-13T07:12:04;99568.36;;;14.66;73.32
67987;BME280;54767;53.800;15.956;2022-09-13T07:14:32;99576.44;;;14.67;73.30
67987;BME280;54767;53.800;15.956;2022-09-13T07:17:00;99567.63;;;14.67;73.17
67987;BME280;54767;53.800;15.956;2022-09-13T07:19:28;99562.81;;;14.70;73.25
67987;BME280;54767;53.800;15.956;2022-09-13T07:21:58;99560.60;;;14.73;73.27
67987;BME280;54767;53.800;15.956;2022-09-13T07:24:26;99552.10;;;14.75;73.23
67987;BME280;54767;53.800;15.956;2022-09-13T07:26:54;99544.13;;;14.77;73.21
67987;BME280;54767;53.800;15.956;2022-09-13T07:29:23;99538.27;;;14.79;73.28
67987;BME280;54767;53.800;15.956;2022-09-13T07:31:53;99540.84;;;14.81;73.18
67987;BME280;54767;53.800;15.956;2022-09-13T07:34:23;99538.81;;;14.84;73.10
67987;BME280;54767;53.800;15.956;2022-09-13T07:36:52;99540.13;;;14.88;73.02
67987;BME280;54767;53.800;15.956;2022-09-13T07:39:20;99547.33;;;14.89;72.90
67987;BME280;54767;53.800;15.956;2022-09-13T07:41:51;99550.11;;;14.90;72.82
67987;BME280;54767;53.800;15.956;2022-09-13T07:44:20;99543.06;;;14.90;72.86
67987;BME280;54767;53.800;15.956;2022-09-13T07:46:50;99543.27;;;14.89;72.76
67987;BME280;54767;53.800;15.956;2022-09-13T07:49:18;99541.31;;;14.90;72.84
67987;BME280;54767;53.800;15.956;2022-09-13T07:51:46;99538.60;;;14.92;72.78
67987;BME280;54767;53.800;15.956;2022-09-13T07:54:19;99540.83;;;14.95;72.71
67987;BME280;54767;53.800;15.956;2022-09-13T07:56:49;99548.48;;;14.98;72.66
67987;BME280;54767;53.800;15.956;2022-09-13T07:59:18;99544.48;;;14.97;72.58
67987;BME280;54767;53.800;15.956;2022-09-13T08:01:48;99533.44;;;14.95;72.67
67987;BME280;54767;53.800;15.956;2022-09-13T08:04:19;99528.69;;;14.95;72.69
67987;BME280;54767;53.800;15.956;2022-09-13T08:06:48;99529.52;;;14.96;72.64
67987;BME280;54767;53.800;15.956;2022-09-13T08:09:16;99531.17;;;15.00;72.67
67987;BME280;54767;53.800;15.956;2022-09-13T08:11:50;99526.21;;;15.01;72.66
67987;BME280;54767;53.800;15.956;2022-09-13T08:14:21;99530.92;;;15.03;72.61
67987;BME280;54767;53.800;15.956;2022-09-13T08:16:54;99525.63;;;15.03;72.69
67987;BME280;54767;53.800;15.956;2022-09-13T08:19:22;99521.35;;;15.05;72.70
67987;BME280;54767;53.800;15.956;2022-09-13T08:21:50;99524.96;;;15.08;72.76
67987;BME280;54767;53.800;15.956;2022-09-13T08:24:19;99525.03;;;15.11;72.59
67987;BME280;54767;53.800;15.956;2022-09-13T08:26:49;99527.27;;;15.14;72.49
67987;BME280;54767;53.800;15.956;2022-09-13T08:29:19;99522.92;;;15.18;72.61
67987;BME280;54767;53.800;15.956;2022-09-13T08:31:48;99521.96;;;15.21;72.46
67987;BME280;54767;53.800;15.956;2022-09-13T08:34:17;99520.96;;;15.19;72.46
67987;BME280;54767;53.800;15.956;2022-09-13T08:36:46;99514.09;;;15.19;72.41
67987;BME280;54767;53.800;15.956;2022-09-13T08:39:14;99508.27;;;15.19;72.25
67987;BME280;54767;53.800;15.956;2022-09-13T08:42:00;99505.16;;;15.23;72.31
67987;BME280;54767;53.800;15.956;2022-09-13T08:44:43;99506.60;;;15.27;72.29
67987;BME280;54767;53.800;15.956;2022-09-13T08:47:42;99501.95;;;15.30;72.18
67987;BME280;54767;53.800;15.956;2022-09-13T08:50:23;99499.65;;;15.31;72.13
67987;BME280;54767;53.800;15.956;2022-09-13T08:55:45;99493.60;;;15.32;72.02
67987;BME280;54767;53.800;15.956;2022-09-13T09:01:26;99485.17;;;15.37;72.01
67987;BME280;54767;53.800;15.956;2022-09-13T09:04:26;99469.55;;;15.41;71.94
67987;BME280;54767;53.800;15.956;2022-09-13T09:09:55;99469.73;;;15.46;72.00
67987;BME280;54767;53.800;15.956;2022-09-13T09:12:41;99466.63;;;15.50;71.87
67987;BME280;54767;53.800;15.956;2022-09-13T09:20:40;99462.21;;;15.61;71.50
67987;BME280;54767;53.800;15.956;2022-09-13T09:23:20;99460.90;;;15.64;71.48
67987;BME280;54767;53.800;15.956;2022-09-13T09:25:50;99455.60;;;15.64;71.39
67987;BME280;54767;53.800;15.956;2022-09-13T09:28:24;99453.83;;;15.65;71.34
67987;BME280;54767;53.800;15.956;2022-09-13T09:30:58;99450.95;;;15.67;71.30
67987;BME280;54767;53.800;15.956;2022-09-13T09:33:40;99446.85;;;15.69;71.23
67987;BME280;54767;53.800;15.956;2022-09-13T09:36:40;99439.35;;;15.72;71.28
67987;BME280;54767;53.800;15.956;2022-09-13T09:39:12;99429.09;;;15.73;71.35
67987;BME280;54767;53.800;15.956;2022-09-13T09:41:43;99429.81;;;15.72;71.30
67987;BME280;54767;53.800;15.956;2022-09-13T09:46:47;99417.09;;;15.78;71.22
67987;BME280;54767;53.800;15.956;2022-09-13T09:49:26;99409.39;;;15.82;71.18
67987;BME280;54767;53.800;15.956;2022-09-13T09:52:21;99409.05;;;15.87;71.14
67987;BME280;54767;53.800;15.956;2022-09-13T09:55:00;99421.82;;;15.90;71.19
67987;BME280;54767;53.800;15.956;2022-09-13T09:57:50;99422.23;;;15.93;71.05
67987;BME280;54767;53.800;15.956;2022-09-13T10:00:20;99431.48;;;15.97;71.15
67987;BME280;54767;53.800;15.956;2022-09-13T10:02:52;99439.61;;;15.96;71.06
67987;BME280;54767;53.800;15.956;2022-09-13T10:05:22;99443.13;;;15.97;71.13
67987;BME280;54767;53.800;15.956;2022-09-13T10:08:01;99442.79;;;15.96;71.44
67987;BME280;54767;53.800;15.956;2022-09-13T10:10:54;99447.06;;;15.95;71.65
67987;BME280;54767;53.800;15.956;2022-09-13T10:13:24;99451.92;;;15.92;71.66
67987;BME280;54767;53.800;15.956;2022-09-13T10:16:04;99453.60;;;15.89;71.78
67987;BME280;54767;53.800;15.956;2022-09-13T10:18:36;99449.95;;;15.88;72.03
67987;BME280;54767;53.800;15.956;2022-09-13T10:23:45;99426.14;;;15.88;72.26
67987;BME280;54767;53.800;15.956;2022-09-13T10:26:23;99417.27;;;15.89;72.26
67987;BME280;54767;53.800;15.956;2022-09-13T10:31:36;99429.40;;;15.90;72.52
67987;BME280;54767;53.800;15.956;2022-09-13T10:34:19;99433.23;;;15.92;72.56
67987;BME280;54767;53.800;15.956;2022-09-13T10:36:59;99422.45;;;15.93;72.57
67987;BME280;54767;53.800;15.956;2022-09-13T10:39:32;99420.65;;;15.93;72.67
67987;BME280;54767;53.800;15.956;2022-09-13T10:42:07;99419.36;;;15.96;72.87
67987;BME280;54767;53.800;15.956;2022-09-13T10:44:42;99423.70;;;15.98;73.05
67987;BME280;54767;53.800;15.956;2022-09-13T10:47:23;99418.99;;;15.95;72.99
67987;BME280;54767;53.800;15.956;2022-09-13T10:49:55;99415.67;;;15.95;73.06
67987;BME280;54767;53.800;15.956;2022-09-13T10:52:37;99410.17;;;15.95;73.20
67987;BME280;54767;53.800;15.956;2022-09-13T10:57:51;99408.86;;;16.03;73.59
67987;BME280;54767;53.800;15.956;2022-09-13T11:00:35;99403.35;;;16.04;73.29
67987;BME280;54767;53.800;15.956;2022-09-13T11:03:22;99402.45;;;16.04;73.53
67987;BME280;54767;53.800;15.956;2022-09-13T11:12:04;99402.67;;;16.09;73.77
67987;BME280;54767;53.800;15.956;2022-09-13T11:14:57;99397.67;;;16.10;73.84
67987;BME280;54767;53.800;15.956;2022-09-13T11:20:44;99386.22;;;16.10;73.84
67987;BME280;54767;53.800;15.956;2022-09-13T11:37:44;99370.83;;;16.26;74.38
67987;BME280;54767;53.800;15.956;2022-09-13T11:45:43;99368.02;;;16.26;74.22
67987;BME280;54767;53.800;15.956;2022-09-13T11:51:29;99366.48;;;16.29;74.43
67987;BME280;54767;53.800;15.956;2022-09-13T11:56:56;99356.94;;;16.34;74.57
67987;BME280;54767;53.800;15.956;2022-09-13T11:59:56;99359.40;;;16.40;74.82
67987;BME280;54767;53.800;15.956;2022-09-13T12:05:16;99350.81;;;16.52;74.88
67987;BME280;54767;53.800;15.956;2022-09-13T12:08:01;99343.69;;;16.59;74.74
67987;BME280;54767;53.800;15.956;2022-09-13T12:13:51;99343.20;;;16.72;74.80
67987;BME280;54767;53.800;15.956;2022-09-13T12:16:26;99350.08;;;16.78;74.54
67987;BME280;54767;53.800;15.956;2022-09-13T12:19:05;99346.38;;;16.78;74.24
67987;BME280;54767;53.800;15.956;2022-09-13T12:21:40;99347.27;;;16.78;74.32
67987;BME280;54767;53.800;15.956;2022-09-13T12:24:19;99341.06;;;16.78;74.41
67987;BME280;54767;53.800;15.956;2022-09-13T12:26:53;99336.65;;;16.78;74.21
67987;BME280;54767;53.800;15.956;2022-09-13T12:29:34;99342.14;;;16.78;74.43
67987;BME280;54767;53.800;15.956;2022-09-13T12:32:08;99339.93;;;16.80;74.39
67987;BME280;54767;53.800;15.956;2022-09-13T12:35:29;99342.06;;;16.84;74.44
67987;BME280;54767;53.800;15.956;2022-09-13T12:54:22;99337.52;;;16.79;74.29
67987;BME280;54767;53.800;15.956;2022-09-13T12:57:01;99340.11;;;16.80;74.31
67987;BME280;54767;53.800;15.956;2022-09-13T12:59:48;99337.69;;;16.79;74.38
67987;BME280;54767;53.800;15.956;2022-09-13T13:02:40;99339.66;;;16.77;74.57
67987;BME280;54767;53.800;15.956;2022-09-13T13:05:31;99341.81;;;16.76;74.70
67987;BME280;54767;53.800;15.956;2022-09-13T13:08:23;99338.41;;;16.72;74.60
67987;BME280;54767;53.800;15.956;2022-09-13T13:11:11;99341.01;;;16.69;74.67
67987;BME280;54767;53.800;15.956;2022-09-13T13:14:01;99334.48;;;16.68;74.68
67987;BME280;54767;53.800;15.956;2022-09-13T13:16:39;99337.09;;;16.65;74.77
67987;BME280;54767;53.800;15.956;2022-09-13T13:19:32;99336.40;;;16.65;74.97
67987;BME280;54767;53.800;15.956;2022-09-13T13:25:37;99341.98;;;16.62;75.21
67987;BME280;54767;53.800;15.956;2022-09-13T13:35:43;99346.59;;;16.57;75.64
67987;BME280;54767;53.800;15.956;2022-09-13T13:38:35;99337.65;;;16.55;75.52
67987;BME280;54767;53.800;15.956;2022-09-13T13:46:53;99333.55;;;16.61;76.11
67987;BME280;54767;53.800;15.956;2022-09-13T13:55:01;99316.10;;;16.73;76.42
67987;BME280;54767;53.800;15.956;2022-09-13T13:57:35;99314.38;;;16.78;76.63
67987;BME280;54767;53.800;15.956;2022-09-13T14:11:41;99307.91;;;17.08;76.60
67987;BME280;54767;53.800;15.956;2022-09-13T14:20:17;99298.40;;;17.38;76.25
67987;BME280;54767;53.800;15.956;2022-09-13T14:22:46;99291.44;;;17.44;75.90
67987;BME280;54767;53.800;15.956;2022-09-13T14:27:47;99288.52;;;17.54;75.61
67987;BME280;54767;53.800;15.956;2022-09-13T14:30:36;99292.48;;;17.61;75.65
67987;BME280;54767;53.800;15.956;2022-09-13T14:33:06;99291.98;;;17.65;75.29
67987;BME280;54767;53.800;15.956;2022-09-13T14:35:45;99297.23;;;17.66;75.23
67987;BME280;54767;53.800;15.956;2022-09-13T14:38:23;99300.09;;;17.66;74.90
67987;BME280;54767;53.800;15.956;2022-09-13T14:40:53;99290.69;;;17.66;74.65
67987;BME280;54767;53.800;15.956;2022-09-13T14:43:28;99287.23;;;17.64;74.40
67987;BME280;54767;53.800;15.956;2022-09-13T14:48:54;99286.36;;;17.64;74.19
67987;BME280;54767;53.800;15.956;2022-09-13T14:51:50;99279.92;;;17.66;74.36
67987;BME280;54767;53.800;15.956;2022-09-13T14:58:55;99277.64;;;17.66;74.17
67987;BME280;54767;53.800;15.956;2022-09-13T15:01:33;99275.38;;;17.64;73.94
67987;BME280;54767;53.800;15.956;2022-09-13T15:04:03;99274.09;;;17.66;74.04
67987;BME280;54767;53.800;15.956;2022-09-13T15:06:37;99274.94;;;17.66;73.97
67987;BME280;54767;53.800;15.956;2022-09-13T15:11:54;99271.33;;;17.59;73.79
67987;BME280;54767;53.800;15.956;2022-09-13T15:14:30;99267.69;;;17.58;73.85
67987;BME280;54767;53.800;15.956;2022-09-13T15:17:09;99269.95;;;17.59;74.06
67987;BME280;54767;53.800;15.956;2022-09-13T15:19:43;99267.17;;;17.61;74.10
67987;BME280;54767;53.800;15.956;2022-09-13T15:22:21;99272.33;;;17.65;74.07
67987;BME280;54767;53.800;15.956;2022-09-13T15:24:56;99279.86;;;17.67;74.00
67987;BME280;54767;53.800;15.956;2022-09-13T15:27:29;99284.06;;;17.63;74.15
67987;BME280;54767;53.800;15.956;2022-09-13T15:30:00;99275.34;;;17.56;74.16
67987;BME280;54767;53.800;15.956;2022-09-13T15:32:42;99273.70;;;17.54;74.26
67987;BME280;54767;53.800;15.956;2022-09-13T15:35:22;99279.56;;;17.49;74.03
67987;BME280;54767;53.800;15.956;2022-09-13T15:40:47;99286.59;;;17.37;73.58
67987;BME280;54767;53.800;15.956;2022-09-13T15:43:15;99283.13;;;17.31;73.76
67987;BME280;54767;53.800;15.956;2022-09-13T15:45:43;99281.38;;;17.26;73.64
67987;BME280;54767;53.800;15.956;2022-09-13T15:48:21;99282.60;;;17.22;73.52
67987;BME280;54767;53.800;15.956;2022-09-13T15:51:12;99280.05;;;17.20;73.48
67987;BME280;54767;53.800;15.956;2022-09-13T15:53:42;99281.63;;;17.15;73.30
67987;BME280;54767;53.800;15.956;2022-09-13T15:56:17;99287.02;;;17.14;73.30
67987;BME280;54767;53.800;15.956;2022-09-13T15:58:46;99287.61;;;17.12;72.58
67987;BME280;54767;53.800;15.956;2022-09-13T16:01:15;99284.70;;;17.09;72.26
67987;BME280;54767;53.800;15.956;2022-09-13T16:03:44;99286.64;;;17.05;71.82
67987;BME280;54767;53.800;15.956;2022-09-13T16:06:12;99292.89;;;16.99;71.61
67987;BME280;54767;53.800;15.956;2022-09-13T16:08:40;99294.98;;;16.95;71.51
67987;BME280;54767;53.800;15.956;2022-09-13T16:11:08;99291.67;;;16.89;71.01
67987;BME280;54767;53.800;15.956;2022-09-13T16:13:37;99293.37;;;16.82;70.71
67987;BME280;54767;53.800;15.956;2022-09-13T16:16:05;99295.48;;;16.77;70.43
67987;BME280;54767;53.800;15.956;2022-09-13T16:18:33;99299.89;;;16.72;70.69
67987;BME280;54767;53.800;15.956;2022-09-13T16:21:06;99300.39;;;16.69;70.55
67987;BME280;54767;53.800;15.956;2022-09-13T16:23:34;99301.88;;;16.67;70.41
67987;BME280;54767;53.800;15.956;2022-09-13T16:26:03;99306.59;;;16.63;70.50
67987;BME280;54767;53.800;15.956;2022-09-13T16:28:32;99307.97;;;16.60;70.41
67987;BME280;54767;53.800;15.956;2022-09-13T16:31:00;99304.05;;;16.56;70.18
67987;BME280;54767;53.800;15.956;2022-09-13T16:33:28;99299.76;;;16.53;70.11
67987;BME280;54767;53.800;15.956;2022-09-13T16:48:07;99298.96;;;16.21;68.55
67987;BME280;54767;53.800;15.956;2022-09-13T16:50:39;99297.64;;;16.14;68.71
67987;BME280;54767;53.800;15.956;2022-09-13T16:53:08;99297.80;;;16.10;68.34
67987;BME280;54767;53.800;15.956;2022-09-13T16:55:36;99297.81;;;16.04;68.27